sensor_id;sensor_type;location;lat;lon;timestamp;P1;durP1;ratioP1;P2;durP2;ratioP2
46290;SDS011;32023;44.444;26.006;2023-09-18T00:00:03;8.00;;;5.05;;
46290;SDS011;32023;44.444;26.006;2023-09-18T00:02:34;6.97;;;4.72;;
46290;SDS011;32023;44.444;26.006;2023-09-18T00:05:00;11.32;;;4.55;;
46290;SDS011;32023;44.444;26.006;2023-09-18T00:07:32;8.27;;;4.43;;
46290;SDS011;32023;44.444;26.006;2023-09-18T00:09:59;10.85;;;4.35;;
46290;SDS011;32023;44.444;26.006;2023-09-18T00:12:47;6.75;;;3.97;;
46290;SDS011;32023;44.444;26.006;2023-09-18T00:15:14;11.02;;;4.65;;
46290;SDS011;32023;44.444;26.006;2023-09-18T00:20:18;7.38;;;3.60;;
46290;SDS011;32023;44.444;26.006;2023-09-18T00:22:45;5.32;;;3.80;;
46290;SDS011;32023;44.444;26.006;2023-09-18T00:25:14;8.73;;;3.85;;
46290;SDS011;32023;44.444;26.006;2023-09-18T00:27:40;7.97;;;3.90;;
46290;SDS011;32023;44.444;26.006;2023-09-18T00:30:07;5.10;;;3.70;;
46290;SDS011;32023;44.444;26.006;2023-09-18T00:32:36;5.85;;;3.80;;
46290;SDS011;32023;44.444;26.006;2023-09-18T00:35:12;6.28;;;3.83;;
46290;SDS011;32023;44.444;26.006;2023-09-18T00:37:47;6.75;;;4.03;;
46290;SDS011;32023;44.444;26.006;2023-09-18T00:40:16;12.27;;;4.13;;
46290;SDS011;32023;44.444;26.006;2023-09-18T00:42:44;5.38;;;3.60;;
46290;SDS011;32023;44.444;26.006;2023-09-18T00:45:11;9.90;;;4.18;;
46290;SDS011;32023;44.444;26.006;2023-09-18T00:47:40;8.23;;;4.00;;
46290;SDS011;32023;44.444;26.006;2023-09-18T00:50:06;7.80;;;4.32;;
46290;SDS011;32023;44.444;26.006;2023-09-18T00:52:37;7.85;;;4.35;;
46290;SDS011;32023;44.444;26.006;2023-09-18T00:55:04;7.40;;;4.57;;
46290;SDS011;32023;44.444;26.006;2023-09-18T01:00:44;5.65;;;3.97;;
46290;SDS011;32023;44.444;26.006;2023-09-18T01:03:19;9.82;;;4.30;;
46290;SDS011;32023;44.444;26.006;2023-09-18T01:05:53;7.65;;;3.97;;
46290;SDS011;32023;44.444;26.006;2023-09-18T01:08:20;8.68;;;3.92;;
46290;SDS011;32023;44.444;26.006;2023-09-18T01:13:51;8.05;;;4.53;;
46290;SDS011;32023;44.444;26.006;2023-09-18T01:17:03;8.90;;;4.63;;
46290;SDS011;32023;44.444;26.006;2023-09-18T01:19:38;9.68;;;4.40;;
46290;SDS011;32023;44.444;26.006;2023-09-18T01:22:15;7.00;;;3.85;;
46290;SDS011;32023;44.444;26.006;2023-09-18T01:24:43;7.47;;;4.75;;
46290;SDS011;32023;44.444;26.006;2023-09-18T01:27:12;5.63;;;4.40;;
46290;SDS011;32023;44.444;26.006;2023-09-18T01:29:49;4.40;;;3.70;;
46290;SDS011;32023;44.444;26.006;2023-09-18T01:32:16;7.70;;;4.60;;
46290;SDS011;32023;44.444;26.006;2023-09-18T01:37:14;6.75;;;4.57;;
46290;SDS011;32023;44.444;26.006;2023-09-18T01:39:46;8.15;;;4.70;;
46290;SDS011;32023;44.444;26.006;2023-09-18T01:42:15;9.23;;;4.68;;
46290;SDS011;32023;44.444;26.006;2023-09-18T01:44:49;8.23;;;5.35;;
46290;SDS011;32023;44.444;26.006;2023-09-18T01:47:23;8.52;;;4.78;;
46290;SDS011;32023;44.444;26.006;2023-09-18T01:52:22;5.35;;;4.65;;
46290;SDS011;32023;44.444;26.006;2023-09-18T01:54:48;9.95;;;5.15;;
46290;SDS011;32023;44.444;26.006;2023-09-18T01:57:15;6.60;;;4.78;;
46290;SDS011;32023;44.444;26.006;2023-09-18T01:59:45;7.70;;;4.97;;
46290;SDS011;32023;44.444;26.006;2023-09-18T02:02:11;7.30;;;4.82;;
46290;SDS011;32023;44.444;26.006;2023-09-18T02:04:38;9.35;;;4.88;;
46290;SDS011;32023;44.444;26.006;2023-09-18T02:07:05;11.90;;;4.60;;
46290;SDS011;32023;44.444;26.006;2023-09-18T02:09:32;8.35;;;4.80;;
46290;SDS011;32023;44.444;26.006;2023-09-18T02:11:59;6.50;;;4.80;;
46290;SDS011;32023;44.444;26.006;2023-09-18T02:14:28;6.47;;;4.72;;
46290;SDS011;32023;44.444;26.006;2023-09-18T02:20:24;11.40;;;4.90;;
46290;SDS011;32023;44.444;26.006;2023-09-18T02:22:53;10.02;;;5.07;;
46290;SDS011;32023;44.444;26.006;2023-09-18T02:25:20;8.30;;;5.00;;
46290;SDS011;32023;44.444;26.006;2023-09-18T02:27:46;7.45;;;5.10;;
46290;SDS011;32023;44.444;26.006;2023-09-18T02:30:16;8.48;;;5.28;;
46290;SDS011;32023;44.444;26.006;2023-09-18T02:32:45;9.60;;;5.28;;
46290;SDS011;32023;44.444;26.006;2023-09-18T02:35:11;6.25;;;5.25;;
46290;SDS011;32023;44.444;26.006;2023-09-18T02:37:40;7.38;;;5.45;;
46290;SDS011;32023;44.444;26.006;2023-09-18T02:40:13;12.45;;;5.35;;
46290;SDS011;32023;44.444;26.006;2023-09-18T02:45:09;6.78;;;5.30;;
46290;SDS011;32023;44.444;26.006;2023-09-18T02:47:35;11.35;;;5.43;;
46290;SDS011;32023;44.444;26.006;2023-09-18T02:50:06;5.85;;;5.22;;
46290;SDS011;32023;44.444;26.006;2023-09-18T02:52:33;8.98;;;5.00;;
46290;SDS011;32023;44.444;26.006;2023-09-18T02:54:59;9.18;;;6.63;;
46290;SDS011;32023;44.444;26.006;2023-09-18T02:57:26;9.55;;;4.93;;
46290;SDS011;32023;44.444;26.006;2023-09-18T02:59:53;10.70;;;5.63;;
46290;SDS011;32023;44.444;26.006;2023-09-18T03:02:19;8.07;;;6.00;;
46290;SDS011;32023;44.444;26.006;2023-09-18T03:04:46;8.65;;;5.53;;
46290;SDS011;32023;44.444;26.006;2023-09-18T03:09:44;12.55;;;5.53;;
46290;SDS011;32023;44.444;26.006;2023-09-18T03:12:10;7.65;;;5.43;;
46290;SDS011;32023;44.444;26.006;2023-09-18T03:17:17;10.10;;;6.18;;
46290;SDS011;32023;44.444;26.006;2023-09-18T03:19:43;9.05;;;5.80;;
46290;SDS011;32023;44.444;26.006;2023-09-18T03:22:12;9.45;;;4.97;;
46290;SDS011;32023;44.444;26.006;2023-09-18T03:24:38;8.50;;;6.03;;
46290;SDS011;32023;44.444;26.006;2023-09-18T03:27:07;7.05;;;5.78;;
46290;SDS011;32023;44.444;26.006;2023-09-18T03:29:36;7.15;;;5.57;;
46290;SDS011;32023;44.444;26.006;2023-09-18T03:32:15;9.00;;;5.43;;
46290;SDS011;32023;44.444;26.006;2023-09-18T03:37:30;10.60;;;6.40;;
46290;SDS011;32023;44.444;26.006;2023-09-18T03:39:57;7.32;;;5.72;;
46290;SDS011;32023;44.444;26.006;2023-09-18T03:42:24;9.65;;;6.45;;
46290;SDS011;32023;44.444;26.006;2023-09-18T03:44:52;11.88;;;5.80;;
46290;SDS011;32023;44.444;26.006;2023-09-18T03:47:18;12.93;;;7.25;;
46290;SDS011;32023;44.444;26.006;2023-09-18T03:49:44;8.25;;;6.13;;
46290;SDS011;32023;44.444;26.006;2023-09-18T03:52:11;9.95;;;5.60;;
46290;SDS011;32023;44.444;26.006;2023-09-18T03:54:37;9.95;;;6.40;;
46290;SDS011;32023;44.444;26.006;2023-09-18T03:57:07;11.25;;;6.60;;
46290;SDS011;32023;44.444;26.006;2023-09-18T03:59:33;11.35;;;6.50;;
46290;SDS011;32023;44.444;26.006;2023-09-18T04:02:10;8.68;;;6.15;;
46290;SDS011;32023;44.444;26.006;2023-09-18T04:04:38;11.20;;;6.40;;
46290;SDS011;32023;44.444;26.006;2023-09-18T04:07:08;12.02;;;6.95;;
46290;SDS011;32023;44.444;26.006;2023-09-18T04:09:43;8.82;;;6.55;;
46290;SDS011;32023;44.444;26.006;2023-09-18T04:12:10;10.15;;;6.47;;
46290;SDS011;32023;44.444;26.006;2023-09-18T04:14:39;9.52;;;6.03;;
46290;SDS011;32023;44.444;26.006;2023-09-18T04:17:07;10.73;;;6.53;;
46290;SDS011;32023;44.444;26.006;2023-09-18T04:19:34;10.02;;;6.65;;
46290;SDS011;32023;44.444;26.006;2023-09-18T04:22:01;11.40;;;6.80;;
46290;SDS011;32023;44.444;26.006;2023-09-18T04:24:27;8.77;;;6.65;;
46290;SDS011;32023;44.444;26.006;2023-09-18T04:26:55;10.55;;;7.05;;
46290;SDS011;32023;44.444;26.006;2023-09-18T04:29:33;13.98;;;6.82;;
46290;SDS011;32023;44.444;26.006;2023-09-18T04:31:59;14.68;;;7.35;;
46290;SDS011;32023;44.444;26.006;2023-09-18T04:34:25;11.32;;;6.30;;
46290;SDS011;32023;44.444;26.006;2023-09-18T04:36:54;11.45;;;6.93;;
46290;SDS011;32023;44.444;26.006;2023-09-18T04:39:24;11.02;;;7.05;;
46290;SDS011;32023;44.444;26.006;2023-09-18T04:41:53;11.40;;;6.85;;
46290;SDS011;32023;44.444;26.006;2023-09-18T04:44:26;10.38;;;6.57;;
46290;SDS011;32023;44.444;26.006;2023-09-18T04:46:58;10.23;;;6.53;;
46290;SDS011;32023;44.444;26.006;2023-09-18T04:49:25;8.90;;;6.78;;
46290;SDS011;32023;44.444;26.006;2023-09-18T04:51:54;13.73;;;6.93;;
46290;SDS011;32023;44.444;26.006;2023-09-18T04:54:21;12.35;;;6.35;;
46290;SDS011;32023;44.444;26.006;2023-09-18T04:56:47;10.68;;;6.38;;
46290;SDS011;32023;44.444;26.006;2023-09-18T04:59:16;9.13;;;6.22;;
46290;SDS011;32023;44.444;26.006;2023-09-18T05:01:53;10.07;;;6.00;;
46290;SDS011;32023;44.444;26.006;2023-09-18T05:04:20;10.73;;;6.05;;
46290;SDS011;32023;44.444;26.006;2023-09-18T05:06:46;15.93;;;6.43;;
46290;SDS011;32023;44.444;26.006;2023-09-18T05:09:17;9.50;;;6.47;;
46290;SDS011;32023;44.444;26.006;2023-09-18T05:11:55;12.73;;;6.20;;
46290;SDS011;32023;44.444;26.006;2023-09-18T05:14:31;8.52;;;6.43;;
46290;SDS011;32023;44.444;26.006;2023-09-18T05:17:02;8.85;;;6.40;;
46290;SDS011;32023;44.444;26.006;2023-09-18T05:19:30;12.18;;;6.72;;
46290;SDS011;32023;44.444;26.006;2023-09-18T05:21:57;13.93;;;6.47;;
46290;SDS011;32023;44.444;26.006;2023-09-18T05:24:29;12.25;;;6.28;;
46290;SDS011;32023;44.444;26.006;2023-09-18T05:29:49;17.35;;;6.45;;
46290;SDS011;32023;44.444;26.006;2023-09-18T05:32:28;9.98;;;6.63;;
46290;SDS011;32023;44.444;26.006;2023-09-18T05:34:57;15.90;;;7.18;;
46290;SDS011;32023;44.444;26.006;2023-09-18T05:40:54;11.32;;;6.65;;
46290;SDS011;32023;44.444;26.006;2023-09-18T05:43:57;20.58;;;7.18;;
46290;SDS011;32023;44.444;26.006;2023-09-18T05:46:31;13.07;;;6.55;;
46290;SDS011;32023;44.444;26.006;2023-09-18T05:51:48;11.18;;;7.45;;
46290;SDS011;32023;44.444;26.006;2023-09-18T05:54:24;13.57;;;7.03;;
46290;SDS011;32023;44.444;26.006;2023-09-18T05:56:50;10.75;;;6.82;;
46290;SDS011;32023;44.444;26.006;2023-09-18T05:59:20;11.60;;;6.80;;
46290;SDS011;32023;44.444;26.006;2023-09-18T06:01:49;11.45;;;6.55;;
46290;SDS011;32023;44.444;26.006;2023-09-18T06:04:19;15.23;;;6.13;;
46290;SDS011;32023;44.444;26.006;2023-09-18T06:09:30;12.07;;;6.95;;
46290;SDS011;32023;44.444;26.006;2023-09-18T06:12:20;12.07;;;6.05;;
46290;SDS011;32023;44.444;26.006;2023-09-18T06:14:49;9.63;;;6.65;;
46290;SDS011;32023;44.444;26.006;2023-09-18T06:17:27;14.70;;;6.35;;
46290;SDS011;32023;44.444;26.006;2023-09-18T06:26:50;10.57;;;5.93;;
46290;SDS011;32023;44.444;26.006;2023-09-18T06:33:10;8.15;;;5.22;;
46290;SDS011;32023;44.444;26.006;2023-09-18T06:41:28;10.68;;;5.40;;
46290;SDS011;32023;44.444;26.006;2023-09-18T06:44:06;14.27;;;4.97;;
46290;SDS011;32023;44.444;26.006;2023-09-18T06:46:32;9.75;;;5.03;;
46290;SDS011;32023;44.444;26.006;2023-09-18T06:49:14;10.85;;;4.90;;
46290;SDS011;32023;44.444;26.006;2023-09-18T06:54:47;9.10;;;4.82;;
46290;SDS011;32023;44.444;26.006;2023-09-18T06:57:53;11.23;;;4.65;;
46290;SDS011;32023;44.444;26.006;2023-09-18T07:00:46;8.63;;;4.40;;
46290;SDS011;32023;44.444;26.006;2023-09-18T07:03:39;7.43;;;3.90;;
46290;SDS011;32023;44.444;26.006;2023-09-18T07:06:11;15.25;;;4.47;;
46290;SDS011;32023;44.444;26.006;2023-09-18T07:08:48;11.68;;;3.95;;
46290;SDS011;32023;44.444;26.006;2023-09-18T07:11:20;6.85;;;4.30;;
46290;SDS011;32023;44.444;26.006;2023-09-18T07:14:04;7.15;;;4.15;;
46290;SDS011;32023;44.444;26.006;2023-09-18T07:16:36;7.07;;;3.83;;
46290;SDS011;32023;44.444;26.006;2023-09-18T07:19:45;5.85;;;3.78;;
46290;SDS011;32023;44.444;26.006;2023-09-18T07:22:58;14.43;;;4.00;;
46290;SDS011;32023;44.444;26.006;2023-09-18T07:32:12;6.13;;;3.53;;
46290;SDS011;32023;44.444;26.006;2023-09-18T07:34:59;6.05;;;3.08;;
46290;SDS011;32023;44.444;26.006;2023-09-18T07:38:04;6.50;;;3.40;;
46290;SDS011;32023;44.444;26.006;2023-09-18T07:41:05;4.38;;;2.70;;
46290;SDS011;32023;44.444;26.006;2023-09-18T07:43:32;6.53;;;2.90;;
46290;SDS011;32023;44.444;26.006;2023-09-18T07:52:49;7.97;;;3.28;;
46290;SDS011;32023;44.444;26.006;2023-09-18T07:55:29;5.13;;;2.55;;
46290;SDS011;32023;44.444;26.006;2023-09-18T08:08:01;3.78;;;2.30;;
46290;SDS011;32023;44.444;26.006;2023-09-18T08:13:42;5.07;;;2.60;;
46290;SDS011;32023;44.444;26.006;2023-09-18T08:19:14;8.18;;;3.28;;
46290;SDS011;32023;44.444;26.006;2023-09-18T08:21:46;4.00;;;2.83;;
46290;SDS011;32023;44.444;26.006;2023-09-18T08:24:19;3.95;;;2.75;;
46290;SDS011;32023;44.444;26.006;2023-09-18T08:26:48;7.00;;;2.63;;
46290;SDS011;32023;44.444;26.006;2023-09-18T08:29:20;6.28;;;2.83;;
46290;SDS011;32023;44.444;26.006;2023-09-18T08:31:47;6.80;;;2.80;;
46290;SDS011;32023;44.444;26.006;2023-09-18T08:34:18;4.60;;;3.17;;
46290;SDS011;32023;44.444;26.006;2023-09-18T08:36:45;5.00;;;2.90;;
46290;SDS011;32023;44.444;26.006;2023-09-18T08:39:19;4.38;;;2.95;;
46290;SDS011;32023;44.444;26.006;2023-09-18T08:42:08;4.75;;;2.45;;
46290;SDS011;32023;44.444;26.006;2023-09-18T08:44:54;6.35;;;3.10;;
46290;SDS011;32023;44.444;26.006;2023-09-18T08:47:38;3.92;;;2.80;;
46290;SDS011;32023;44.444;26.006;2023-09-18T08:50:13;10.70;;;3.83;;
46290;SDS011;32023;44.444;26.006;2023-09-18T08:52:50;4.93;;;3.03;;
46290;SDS011;32023;44.444;26.006;2023-09-18T08:55:20;10.43;;;3.97;;
46290;SDS011;32023;44.444;26.006;2023-09-18T08:58:01;6.18;;;3.35;;
46290;SDS011;32023;44.444;26.006;2023-09-18T09:03:38;5.28;;;3.00;;
46290;SDS011;32023;44.444;26.006;2023-09-18T09:06:08;9.25;;;3.05;;
46290;SDS011;32023;44.444;26.006;2023-09-18T09:08:37;4.10;;;3.10;;
46290;SDS011;32023;44.444;26.006;2023-09-18T09:11:12;6.82;;;2.97;;
46290;SDS011;32023;44.444;26.006;2023-09-18T09:13:42;4.07;;;3.05;;
46290;SDS011;32023;44.444;26.006;2023-09-18T09:16:10;8.52;;;3.28;;
46290;SDS011;32023;44.444;26.006;2023-09-18T09:18:46;4.63;;;2.92;;
46290;SDS011;32023;44.444;26.006;2023-09-18T09:21:23;6.22;;;3.50;;
46290;SDS011;32023;44.444;26.006;2023-09-18T09:24:05;6.72;;;3.05;;
46290;SDS011;32023;44.444;26.006;2023-09-18T09:26:56;8.10;;;3.20;;
46290;SDS011;32023;44.444;26.006;2023-09-18T09:30:01;6.60;;;3.45;;
46290;SDS011;32023;44.444;26.006;2023-09-18T09:32:52;15.52;;;3.85;;
46290;SDS011;32023;44.444;26.006;2023-09-18T09:35:42;4.10;;;2.95;;
46290;SDS011;32023;44.444;26.006;2023-09-18T09:38:11;8.50;;;3.25;;
46290;SDS011;32023;44.444;26.006;2023-09-18T09:40:56;5.85;;;3.13;;
46290;SDS011;32023;44.444;26.006;2023-09-18T09:43:45;4.17;;;3.27;;
46290;SDS011;32023;44.444;26.006;2023-09-18T09:46:25;6.50;;;3.90;;
46290;SDS011;32023;44.444;26.006;2023-09-18T09:49:06;3.58;;;3.20;;
46290;SDS011;32023;44.444;26.006;2023-09-18T09:51:36;8.68;;;4.15;;
46290;SDS011;32023;44.444;26.006;2023-09-18T09:54:11;4.00;;;3.47;;
46290;SDS011;32023;44.444;26.006;2023-09-18T09:59:27;4.50;;;4.10;;
46290;SDS011;32023;44.444;26.006;2023-09-18T10:01:58;6.35;;;3.63;;
46290;SDS011;32023;44.444;26.006;2023-09-18T10:04:34;7.70;;;3.83;;
46290;SDS011;32023;44.444;26.006;2023-09-18T10:07:13;5.78;;;3.67;;
46290;SDS011;32023;44.444;26.006;2023-09-18T10:09:44;5.03;;;3.30;;
46290;SDS011;32023;44.444;26.006;2023-09-18T10:12:15;6.13;;;3.88;;
46290;SDS011;32023;44.444;26.006;2023-09-18T10:17:52;6.07;;;3.60;;
46290;SDS011;32023;44.444;26.006;2023-09-18T10:20:29;4.15;;;3.28;;
46290;SDS011;32023;44.444;26.006;2023-09-18T10:23:13;4.68;;;4.10;;
46290;SDS011;32023;44.444;26.006;2023-09-18T10:26:00;4.45;;;3.70;;
46290;SDS011;32023;44.444;26.006;2023-09-18T10:28:32;8.57;;;3.67;;
46290;SDS011;32023;44.444;26.006;2023-09-18T10:31:04;7.03;;;4.00;;
46290;SDS011;32023;44.444;26.006;2023-09-18T10:33:34;3.55;;;3.25;;
46290;SDS011;32023;44.444;26.006;2023-09-18T10:36:06;4.43;;;3.33;;
46290;SDS011;32023;44.444;26.006;2023-09-18T10:38:33;5.50;;;3.63;;
46290;SDS011;32023;44.444;26.006;2023-09-18T10:41:09;4.60;;;3.50;;
46290;SDS011;32023;44.444;26.006;2023-09-18T10:43:42;4.75;;;3.30;;
46290;SDS011;32023;44.444;26.006;2023-09-18T10:46:15;5.75;;;3.10;;
46290;SDS011;32023;44.444;26.006;2023-09-18T10:51:54;6.72;;;3.42;;
46290;SDS011;32023;44.444;26.006;2023-09-18T10:54:24;4.23;;;3.83;;
46290;SDS011;32023;44.444;26.006;2023-09-18T10:57:15;4.13;;;3.78;;
46290;SDS011;32023;44.444;26.006;2023-09-18T10:59:47;4.57;;;3.97;;
46290;SDS011;32023;44.444;26.006;2023-09-18T11:02:23;7.15;;;3.63;;
46290;SDS011;32023;44.444;26.006;2023-09-18T11:04:50;4.60;;;3.10;;
46290;SDS011;32023;44.444;26.006;2023-09-18T11:07:20;5.57;;;3.50;;
46290;SDS011;32023;44.444;26.006;2023-09-18T11:09:50;5.63;;;3.10;;
46290;SDS011;32023;44.444;26.006;2023-09-18T11:12:19;5.53;;;2.78;;
46290;SDS011;32023;44.444;26.006;2023-09-18T11:15:24;5.93;;;2.83;;
46290;SDS011;32023;44.444;26.006;2023-09-18T11:18:04;6.28;;;2.85;;
46290;SDS011;32023;44.444;26.006;2023-09-18T11:20:43;4.75;;;3.38;;
46290;SDS011;32023;44.444;26.006;2023-09-18T11:23:57;7.43;;;3.35;;
46290;SDS011;32023;44.444;26.006;2023-09-18T11:27:01;4.97;;;3.45;;
46290;SDS011;32023;44.444;26.006;2023-09-18T11:29:51;4.30;;;3.90;;
46290;SDS011;32023;44.444;26.006;2023-09-18T11:32:40;9.32;;;3.97;;
46290;SDS011;32023;44.444;26.006;2023-09-18T11:35:16;5.00;;;3.50;;
46290;SDS011;32023;44.444;26.006;2023-09-18T11:38:07;9.10;;;4.03;;
46290;SDS011;32023;44.444;26.006;2023-09-18T11:47:32;4.20;;;3.67;;
46290;SDS011;32023;44.444;26.006;2023-09-18T11:50:19;4.32;;;2.70;;
46290;SDS011;32023;44.444;26.006;2023-09-18T11:53:02;7.10;;;3.35;;
46290;SDS011;32023;44.444;26.006;2023-09-18T11:55:30;6.88;;;3.17;;
46290;SDS011;32023;44.444;26.006;2023-09-18T11:58:26;9.30;;;3.47;;
46290;SDS011;32023;44.444;26.006;2023-09-18T12:01:16;7.18;;;3.88;;
46290;SDS011;32023;44.444;26.006;2023-09-18T12:04:01;5.85;;;3.30;;
46290;SDS011;32023;44.444;26.006;2023-09-18T12:06:34;9.00;;;3.63;;
46290;SDS011;32023;44.444;26.006;2023-09-18T12:09:11;8.40;;;3.70;;
46290;SDS011;32023;44.444;26.006;2023-09-18T12:12:08;9.00;;;3.92;;
46290;SDS011;32023;44.444;26.006;2023-09-18T12:14:58;6.97;;;3.75;;
46290;SDS011;32023;44.444;26.006;2023-09-18T12:17:39;4.75;;;3.35;;
46290;SDS011;32023;44.444;26.006;2023-09-18T12:20:14;9.32;;;4.40;;
46290;SDS011;32023;44.444;26.006;2023-09-18T12:26:07;7.70;;;3.13;;
46290;SDS011;32023;44.444;26.006;2023-09-18T12:28:55;9.02;;;3.67;;
46290;SDS011;32023;44.444;26.006;2023-09-18T12:31:25;10.05;;;3.35;;
46290;SDS011;32023;44.444;26.006;2023-09-18T12:33:54;5.43;;;3.65;;
46290;SDS011;32023;44.444;26.006;2023-09-18T12:37:04;3.80;;;2.95;;
46290;SDS011;32023;44.444;26.006;2023-09-18T12:39:54;5.50;;;3.58;;
46290;SDS011;32023;44.444;26.006;2023-09-18T12:42:35;10.53;;;3.60;;
46290;SDS011;32023;44.444;26.006;2023-09-18T12:45:06;7.35;;;3.65;;
46290;SDS011;32023;44.444;26.006;2023-09-18T12:47:36;10.02;;;4.47;;
46290;SDS011;32023;44.444;26.006;2023-09-18T12:50:04;7.35;;;4.30;;
46290;SDS011;32023;44.444;26.006;2023-09-18T12:52:40;10.95;;;3.95;;
46290;SDS011;32023;44.444;26.006;2023-09-18T12:55:24;14.85;;;4.20;;
46290;SDS011;32023;44.444;26.006;2023-09-18T12:58:05;11.32;;;3.83;;
46290;SDS011;32023;44.444;26.006;2023-09-18T13:00:44;8.90;;;3.60;;
46290;SDS011;32023;44.444;26.006;2023-09-18T13:03:20;7.05;;;4.20;;
46290;SDS011;32023;44.444;26.006;2023-09-18T13:06:11;9.10;;;3.95;;
46290;SDS011;32023;44.444;26.006;2023-09-18T13:09:01;11.35;;;4.13;;
46290;SDS011;32023;44.444;26.006;2023-09-18T13:18:12;14.57;;;4.25;;
46290;SDS011;32023;44.444;26.006;2023-09-18T13:20:48;9.50;;;4.35;;
46290;SDS011;32023;44.444;26.006;2023-09-18T13:23:31;7.60;;;3.75;;
46290;SDS011;32023;44.444;26.006;2023-09-18T13:26:17;10.27;;;4.03;;
46290;SDS011;32023;44.444;26.006;2023-09-18T13:28:48;7.00;;;4.00;;
46290;SDS011;32023;44.444;26.006;2023-09-18T13:31:25;5.15;;;3.65;;
46290;SDS011;32023;44.444;26.006;2023-09-18T13:34:05;5.25;;;3.78;;
46290;SDS011;32023;44.444;26.006;2023-09-18T13:36:43;11.98;;;3.90;;
46290;SDS011;32023;44.444;26.006;2023-09-18T13:39:20;6.68;;;4.00;;
46290;SDS011;32023;44.444;26.006;2023-09-18T13:41:57;7.95;;;3.78;;
46290;SDS011;32023;44.444;26.006;2023-09-18T13:44:37;9.23;;;3.55;;
46290;SDS011;32023;44.444;26.006;2023-09-18T13:50:32;7.00;;;3.67;;
46290;SDS011;32023;44.444;26.006;2023-09-18T13:56:12;12.20;;;3.95;;
46290;SDS011;32023;44.444;26.006;2023-09-18T13:59:36;8.52;;;3.85;;
46290;SDS011;32023;44.444;26.006;2023-09-18T14:06:18;5.55;;;3.75;;
46290;SDS011;32023;44.444;26.006;2023-09-18T14:09:20;9.63;;;4.45;;
46290;SDS011;32023;44.444;26.006;2023-09-18T14:12:16;15.00;;;5.20;;
46290;SDS011;32023;44.444;26.006;2023-09-18T14:14:53;5.82;;;3.50;;
46290;SDS011;32023;44.444;26.006;2023-09-18T14:17:24;6.38;;;4.90;;
46290;SDS011;32023;44.444;26.006;2023-09-18T14:27:02;8.60;;;4.22;;
46290;SDS011;32023;44.444;26.006;2023-09-18T14:30:22;4.90;;;3.35;;
46290;SDS011;32023;44.444;26.006;2023-09-18T14:32:56;7.30;;;4.65;;
46290;SDS011;32023;44.444;26.006;2023-09-18T14:35:28;6.88;;;3.80;;
46290;SDS011;32023;44.444;26.006;2023-09-18T14:40:46;6.68;;;3.67;;
46290;SDS011;32023;44.444;26.006;2023-09-18T14:43:27;4.82;;;3.90;;
46290;SDS011;32023;44.444;26.006;2023-09-18T14:45:59;8.30;;;3.88;;
46290;SDS011;32023;44.444;26.006;2023-09-18T14:48:31;5.95;;;3.90;;
46290;SDS011;32023;44.444;26.006;2023-09-18T14:51:06;7.43;;;3.83;;
46290;SDS011;32023;44.444;26.006;2023-09-18T14:53:47;5.88;;;3.47;;
46290;SDS011;32023;44.444;26.006;2023-09-18T14:56:14;8.75;;;3.90;;
46290;SDS011;32023;44.444;26.006;2023-09-18T14:58:43;10.80;;;3.97;;
46290;SDS011;32023;44.444;26.006;2023-09-18T15:01:32;8.75;;;4.10;;
46290;SDS011;32023;44.444;26.006;2023-09-18T15:04:01;7.05;;;3.38;;
46290;SDS011;32023;44.444;26.006;2023-09-18T15:06:36;9.93;;;4.57;;
46290;SDS011;32023;44.444;26.006;2023-09-18T15:09:08;7.22;;;4.30;;
46290;SDS011;32023;44.444;26.006;2023-09-18T15:11:46;12.13;;;3.80;;
46290;SDS011;32023;44.444;26.006;2023-09-18T15:14:18;8.60;;;3.80;;
46290;SDS011;32023;44.444;26.006;2023-09-18T15:16:52;8.20;;;3.33;;
46290;SDS011;32023;44.444;26.006;2023-09-18T15:23:16;13.15;;;5.47;;
46290;SDS011;32023;44.444;26.006;2023-09-18T15:26:28;7.38;;;4.05;;
46290;SDS011;32023;44.444;26.006;2023-09-18T15:29:09;10.43;;;4.10;;
46290;SDS011;32023;44.444;26.006;2023-09-18T15:32:10;7.47;;;3.60;;
46290;SDS011;32023;44.444;26.006;2023-09-18T15:34:58;9.82;;;3.85;;
46290;SDS011;32023;44.444;26.006;2023-09-18T15:40:48;6.05;;;4.05;;
46290;SDS011;32023;44.444;26.006;2023-09-18T15:43:18;12.95;;;5.00;;
46290;SDS011;32023;44.444;26.006;2023-09-18T15:45:55;5.55;;;3.90;;
46290;SDS011;32023;44.444;26.006;2023-09-18T15:51:16;12.73;;;4.57;;
46290;SDS011;32023;44.444;26.006;2023-09-18T15:54:00;5.72;;;3.25;;
46290;SDS011;32023;44.444;26.006;2023-09-18T15:56:29;8.45;;;4.43;;
46290;SDS011;32023;44.444;26.006;2023-09-18T15:58:55;6.78;;;4.70;;
46290;SDS011;32023;44.444;26.006;2023-09-18T16:01:26;6.63;;;4.22;;
46290;SDS011;32023;44.444;26.006;2023-09-18T16:06:48;11.30;;;4.30;;
46290;SDS011;32023;44.444;26.006;2023-09-18T16:09:29;9.88;;;4.22;;
46290;SDS011;32023;44.444;26.006;2023-09-18T16:12:22;6.45;;;4.18;;
46290;SDS011;32023;44.444;26.006;2023-09-18T16:25:04;8.15;;;3.88;;
46290;SDS011;32023;44.444;26.006;2023-09-18T16:30:55;8.02;;;4.15;;
46290;SDS011;32023;44.444;26.006;2023-09-18T16:33:35;9.93;;;3.67;;
46290;SDS011;32023;44.444;26.006;2023-09-18T16:39:20;11.77;;;5.00;;
46290;SDS011;32023;44.444;26.006;2023-09-18T16:44:50;17.92;;;5.00;;
46290;SDS011;32023;44.444;26.006;2023-09-18T16:47:30;8.10;;;4.75;;
46290;SDS011;32023;44.444;26.006;2023-09-18T16:53:13;13.77;;;5.00;;
46290;SDS011;32023;44.444;26.006;2023-09-18T16:56:17;16.42;;;5.53;;
46290;SDS011;32023;44.444;26.006;2023-09-18T16:59:18;17.88;;;4.93;;
46290;SDS011;32023;44.444;26.006;2023-09-18T17:02:05;11.40;;;4.47;;
46290;SDS011;32023;44.444;26.006;2023-09-18T17:04:46;13.50;;;5.57;;
46290;SDS011;32023;44.444;26.006;2023-09-18T17:07:23;7.57;;;4.88;;
46290;SDS011;32023;44.444;26.006;2023-09-18T17:10:30;18.52;;;5.13;;
46290;SDS011;32023;44.444;26.006;2023-09-18T17:13:16;13.73;;;4.93;;
46290;SDS011;32023;44.444;26.006;2023-09-18T17:15:51;9.00;;;5.25;;
46290;SDS011;32023;44.444;26.006;2023-09-18T17:18:18;15.73;;;5.55;;
46290;SDS011;32023;44.444;26.006;2023-09-18T17:20:57;15.13;;;5.55;;
46290;SDS011;32023;44.444;26.006;2023-09-18T17:23:32;23.20;;;5.65;;
46290;SDS011;32023;44.444;26.006;2023-09-18T17:26:03;9.20;;;5.10;;
46290;SDS011;32023;44.444;26.006;2023-09-18T17:28:40;10.98;;;5.57;;
46290;SDS011;32023;44.444;26.006;2023-09-18T17:31:08;18.08;;;5.50;;
46290;SDS011;32023;44.444;26.006;2023-09-18T17:33:39;13.48;;;5.70;;
46290;SDS011;32023;44.444;26.006;2023-09-18T17:39:12;14.98;;;5.60;;
46290;SDS011;32023;44.444;26.006;2023-09-18T17:44:38;13.25;;;6.00;;
46290;SDS011;32023;44.444;26.006;2023-09-18T17:50:18;9.15;;;5.00;;
46290;SDS011;32023;44.444;26.006;2023-09-18T17:52:44;8.57;;;5.07;;
46290;SDS011;32023;44.444;26.006;2023-09-18T17:55:20;12.52;;;5.40;;
46290;SDS011;32023;44.444;26.006;2023-09-18T18:01:01;15.45;;;5.45;;
46290;SDS011;32023;44.444;26.006;2023-09-18T18:03:45;12.20;;;5.53;;
46290;SDS011;32023;44.444;26.006;2023-09-18T18:06:27;9.48;;;5.03;;
46290;SDS011;32023;44.444;26.006;2023-09-18T18:08:56;10.57;;;5.53;;
46290;SDS011;32023;44.444;26.006;2023-09-18T18:11:37;11.43;;;5.10;;
46290;SDS011;32023;44.444;26.006;2023-09-18T18:14:22;9.77;;;4.75;;
46290;SDS011;32023;44.444;26.006;2023-09-18T18:17:04;7.97;;;4.85;;
46290;SDS011;32023;44.444;26.006;2023-09-18T18:19:35;15.80;;;4.97;;
46290;SDS011;32023;44.444;26.006;2023-09-18T18:25:26;12.77;;;4.97;;
46290;SDS011;32023;44.444;26.006;2023-09-18T18:27:59;10.48;;;4.45;;